Flight Track Log - Related Links

Times and Time Zones

All times are in EDT time to prevent confusion due to time zone crossing. See the SWA718 flight status page for this flight to view local times or setup timezone preferences in your user account.

Time Position Orientation Groundspeed Altitude Reporting Facility
EDT Latitude Longitude Course Direction KTS MPH feet Rate Location/Type
Tue 23:24:50 41.7256 -87.9950 253° West 230 265 4,500  Level Chicago Center
Tue 23:25:50 41.7294 -88.0819 273° West 279 321 9,200 3,719 Climbing Chicago Center
Tue 23:26:51 41.7847 -88.1489 318° Northwest 276 318 12,000 1,869 Climbing Chicago Center
Tue 23:27:52 41.7883 -88.2592 273° West 300 345 13,000 2,164 Climbing Chicago Center
Tue 23:28:53 41.7864 -88.3867 269° West 342 394 16,400 3,295 Climbing Chicago Center
Tue 23:29:54 41.7850 -88.5225 269° West 362 417 19,700 2,803 Climbing Chicago Center
Tue 23:30:55 41.7847 -88.6639 270° West 380 437 22,100 2,628 Climbing Chicago Center
Tue 23:31:55 41.7828 -88.8136 269° West 402 463 25,000 2,826 Climbing Chicago Center
Tue 23:32:56 41.7819 -88.9950 270° West 408 470 27,800 1,475 Climbing Chicago Center
Tue 23:33:57 41.7811 -89.1497 270° West 417 480 28,000 98 Climbing Chicago Center
Tue 23:34:58 41.7744 -89.3044 267° West 421 484 28,000  Level Chicago Center
Tue 23:35:59 41.7667 -89.4589 266° West 418 481 28,000 787 Level Chicago Center
Tue 23:37:00 41.7622 -89.5997 268° West 422 486 29,600 2,083 Climbing Chicago Center
Tue 23:38:00 41.7547 -89.7542 266° West 419 482 32,200 2,231 Climbing Chicago Center
Tue 23:39:01 41.7478 -89.9067 267° West 414 476 34,100 1,869 Climbing Chicago Center
Tue 23:40:02 41.7389 -90.0903 266° West 414 476 36,000 934 Climbing Chicago Center
Tue 23:41:03 41.7317 -90.2425 266° West 413 475 36,000  Level Chicago Center
Tue 23:42:04 41.7214 -90.3994 265° West 422 486 36,000  Level Chicago Center
Tue 23:43:04 41.7147 -90.5500 267° West 410 472 36,000  Level Chicago Center
Tue 23:44:05 41.7067 -90.6947 266° West 410 472 36,000  Level Chicago Center
Tue 23:45:06 41.6972 -90.8464 265° West 410 472 36,000  Level Chicago Center
Tue 23:46:07 41.6897 -90.9986 266° West 414 476 36,000  Level Chicago Center
Tue 23:47:08 41.6803 -91.1494 265° West 411 473 36,000  Level Chicago Center
Tue 23:48:08 41.6717 -91.3028 266° West 415 478 36,000  Level Chicago Center
Tue 23:49:09 41.6606 -91.4864 265° West 416 479 36,000  Level Chicago Center
Tue 23:51:00 41.6282 -91.7308 260° West  Level FlightAware Approximate
Tue 23:55:13 41.6014 -92.3936 257° West 407 468 36,000  Level Chicago Center
Tue 23:56:14 41.5903 -92.5425 264° West 406 467 36,000  Level Chicago Center
Tue 23:57:15 41.5800 -92.6908 265° West 406 467 36,000  Level Chicago Center
Tue 23:58:00 41.5661 -92.6663 266° West  Level FlightAware Approximate
Tue 23:58:15 41.5675 -92.8561 264° West 405 466 36,000  Level Chicago Center
Tue 23:59:00 41.5576 -92.7998 265° West  Level FlightAware Approximate
Tue 23:59:16 41.5561 -93.0056 264° West 408 470 36,000  Level Chicago Center
Wed 00:00:00 41.5473 -92.9330 257° West  Level FlightAware Approximate
Wed 00:00:18 41.5453 -93.1592 265° West 411 473 36,000  Level Minneapolis Center
Wed 00:01:18 41.5336 -93.3069 264° West 408 470 36,000  Level Minneapolis Center
Wed 00:02:19 41.5219 -93.4583 264° West 412 474 36,000 -99 Level Minneapolis Center
Wed 00:03:19 41.5119 -93.6022 265° West 401 461 35,800 -1,289 Descending Minneapolis Center
Wed 00:04:20 41.4997 -93.7492 264° West 401 461 33,400 -2,678 Descending Minneapolis Center
Wed 00:05:20 41.4872 -93.8989 264° West 407 468 30,400 -2,876 Descending Minneapolis Center
Wed 00:06:21 41.4733 -94.0747 264° West 403 464 27,600 -2,529 Descending Minneapolis Center
Wed 00:07:21 41.4606 -94.2156 263° West 392 451 25,300 -2,182 Descending Minneapolis Center
Wed 00:08:22 41.4461 -94.3497 262° West 375 432 23,200 -2,083 Descending Minneapolis Center
Wed 00:09:22 41.4339 -94.4792 263° West 357 411 21,100 -2,000 Descending Minneapolis Center
Wed 00:10:22 41.4239 -94.6039 264° West 344 396 19,200 -1,983 Descending Minneapolis Center
Wed 00:11:23 41.4147 -94.7250 264° West 325 374 17,100 -2,069 Descending Minneapolis Center
Wed 00:11:49 41.4261 -94.7861 284° West 317 365 16,200 -1,800 Descending Minneapolis Center
Wed 00:12:23 41.4042 -94.8358 240° Southwest 313 360 15,300 -1,768 Descending Minneapolis Center
Wed 00:13:24 41.3956 -94.9472 264° West 305 351 13,400 -1,488 Descending Minneapolis Center
Wed 00:14:24 41.3769 -95.0561 257° West 302 348 12,300 -1,450 Descending Minneapolis Center
Wed 00:15:24 41.3539 -95.1644 254° West 304 350 10,500 -1,289 Descending Minneapolis Center
Wed 00:16:25 41.3336 -95.2669 255° West 297 342 9,700 -1,091 Descending Minneapolis Center
Wed 00:17:25 41.3139 -95.3589 254° West 279 321 8,300 -1,400 Descending Minneapolis Center
Wed 00:18:25 41.2961 -95.4492 255° West 264 304 6,900 -1,488 Descending Minneapolis Center
Wed 00:19:26 41.2778 -95.5378 255° West 256 295 5,300 -1,296 Descending Minneapolis Center
Wed 00:20:30 41.2581 -95.6547 257° West 274 315 4,200 -1,190 Descending Minneapolis Center
Wed 00:21:27 41.2367 -95.7336 250° West 269 310 2,900 -718 Descending Minneapolis Center
Wed 00:22:27 41.2242 -95.8200 259° West 244 281 2,800 -550 Descending Minneapolis Center
Wed 00:23:27 41.2558 -95.8506 324° Northwest 178 205 1,800 -843 Descending Minneapolis Center
Wed 00:24:28 41.2869 -95.8808 324° Northwest 151 174 1,100 -689 Descending Minneapolis Center
Wed 00:26:00 41.3000 -95.8833 270° West  Level FlightAware Approximate
Wed 00:33:00 41.3032 -95.8941 270° West  Level Estimated
Wed 00:34:00 41.3032 -95.8941 270° West  Level Estimated
Wed 00:35:00 41.3032 -95.8941 270° West  Level Estimated
Wed 00:36:00 41.3032 -95.8941 270° West  Level Estimated
Wed 00:37:00 41.3032 -95.8941 270° West  Level Estimated
Wed 00:38:00 41.3032 -95.8941 270° West  Level Estimated
Wed 00:39:00 41.3032 -95.8941 270° West  Level Estimated

Login

Don't have an account? Register now (free) for customized features, flight alerts, and more!